Time;durP1;ratioP1;P1;durP2;ratioP2;P2;SDS_P1;SDS_P2;PMS_P1;PMS_P2;Temp;Humidity;BMP_temperature;BMP_pressure;BME280_temperature;BME280_humidity;BME280_pressure;Samples;Min_cycle;Max_cycle;Signal;HPM_P1;HPM_P2
2022/07/07 00:02:16;;;;;;;4.03;2.10;;;;;;;19.14;54.51;101413.09;4930631;28;20735;-68
2022/07/07 00:04:41;;;;;;;4.35;2.67;;;;;;;19.18;54.20;101413.59;4949533;28;20103;-66
2022/07/07 00:07:07;;;;;;;4.18;2.65;;;;;;;19.12;54.52;101411.59;4959877;28;20036;-67
2022/07/07 00:09:33;;;;;;;5.95;2.30;;;;;;;19.11;54.59;101404.59;4966325;28;20017;-67
2022/07/07 00:11:58;;;;;;;6.38;2.35;;;;;;;19.05;54.75;101398.06;4980466;28;20053;-68
2022/07/07 00:14:24;;;;;;;9.90;2.15;;;;;;;19.08;55.09;101402.22;4965335;28;20205;-69
2022/07/07 00:16:49;;;;;;;5.65;2.10;;;;;;;19.08;55.30;101396.88;4960553;28;20072;-68
2022/07/07 00:19:15;;;;;;;4.50;2.10;;;;;;;19.03;55.31;101394.72;4949936;28;20229;-68
2022/07/07 00:21:40;;;;;;;2.60;2.20;;;;;;;19.00;55.67;101395.09;4965414;28;20105;-67
2022/07/07 00:24:06;;;;;;;6.05;2.20;;;;;;;19.06;55.58;101389.00;4969872;28;20117;-67
2022/07/07 00:26:32;;;;;;;5.18;2.22;;;;;;;19.20;55.14;101382.03;4969751;28;20041;-67
2022/07/07 00:28:57;;;;;;;5.78;2.40;;;;;;;19.10;55.51;101393.00;4985594;28;20029;-65
2022/07/07 00:31:23;;;;;;;4.70;2.40;;;;;;;19.02;56.08;101385.00;4951755;28;20223;-68
2022/07/07 00:33:48;;;;;;;6.72;2.45;;;;;;;18.99;56.53;101394.22;4969435;28;20017;-66
2022/07/07 00:36:14;;;;;;;3.55;2.35;;;;;;;19.09;56.37;101394.00;4969307;28;20009;-67
2022/07/07 00:38:40;;;;;;;4.50;2.35;;;;;;;19.01;56.38;101386.03;4986344;28;20029;-65
2022/07/07 00:41:05;;;;;;;3.10;2.10;;;;;;;18.95;56.92;101386.72;4986751;28;20036;-68
2022/07/07 00:43:41;;;;;;;4.20;2.50;;;;;;;18.87;57.58;101377.72;4982951;28;20025;-67
2022/07/07 00:46:07;;;;;;;5.63;2.25;;;;;;;18.85;57.81;101376.19;4947530;28;20018;-67
2022/07/07 00:48:34;;;;;;;3.15;1.90;;;;;;;18.83;57.88;101362.94;4966361;28;20821;-68
2022/07/07 00:50:59;;;;;;;4.43;2.10;;;;;;;18.89;58.30;101358.75;4965943;28;20040;-67
2022/07/07 00:53:24;;;;;;;3.33;1.90;;;;;;;18.86;58.58;101362.59;4949755;28;20388;-68
2022/07/07 00:55:50;;;;;;;3.95;1.90;;;;;;;18.86;58.56;101346.50;4986418;28;20018;-66
2022/07/07 00:58:16;;;;;;;4.15;2.20;;;;;;;18.91;58.65;101350.53;4969137;28;20063;-67
2022/07/07 01:00:41;;;;;;;3.72;2.00;;;;;;;18.84;59.01;101351.22;4968280;28;20298;-68
2022/07/07 01:03:08;;;;;;;3.08;1.70;;;;;;;18.81;59.02;101348.91;4951924;28;20002;-69
2022/07/07 01:05:34;;;;;;;3.50;1.95;;;;;;;18.73;59.29;101343.56;4952177;28;20014;-67
2022/07/07 01:08:00;;;;;;;2.03;1.80;;;;;;;18.74;59.62;101331.84;4964442;28;20042;-68
2022/07/07 01:10:26;;;;;;;2.83;1.80;;;;;;;18.73;59.60;101340.91;4969359;28;20250;-68
2022/07/07 01:12:51;;;;;;;3.58;1.95;;;;;;;18.70;59.77;101330.53;4968657;28;20022;-65
2022/07/07 01:15:17;;;;;;;2.30;1.70;;;;;;;18.74;59.34;101321.13;4949296;28;20014;-68
2022/07/07 01:17:42;;;;;;;3.47;1.95;;;;;;;18.75;59.62;101330.81;4949060;28;20018;-67
2022/07/07 01:20:09;;;;;;;5.03;2.03;;;;;;;18.73;59.85;101332.00;4987076;28;20356;-68
2022/07/07 01:22:35;;;;;;;3.63;1.77;;;;;;;18.76;59.42;101335.19;4969334;28;20125;-68
2022/07/07 01:25:01;;;;;;;3.22;1.80;;;;;;;18.76;59.73;101329.81;4939044;28;20127;-70
2022/07/07 01:27:27;;;;;;;3.47;1.90;;;;;;;18.75;59.82;101333.50;4934472;28;20609;-68
2022/07/07 01:29:56;;;;;;;2.40;1.67;;;;;;;18.77;60.09;101336.00;4960673;28;20022;-68
2022/07/07 01:32:21;;;;;;;3.67;1.83;;;;;;;18.75;59.91;101322.78;4962365;28;20034;-67
2022/07/07 01:34:48;;;;;;;2.60;1.83;;;;;;;18.79;59.60;101329.44;4963357;28;20494;-67
2022/07/07 01:37:13;;;;;;;4.93;2.00;;;;;;;18.69;59.98;101324.31;4963407;28;20408;-66
2022/07/07 01:39:39;;;;;;;3.40;2.28;;;;;;;18.66;60.07;101329.22;4966097;28;20033;-68
2022/07/07 01:42:05;;;;;;;2.60;2.08;;;;;;;18.69;60.08;101326.16;4964129;28;20079;-68
2022/07/07 01:44:31;;;;;;;3.13;2.08;;;;;;;18.83;59.47;101325.41;4930976;28;20596;-68
2022/07/07 01:46:57;;;;;;;2.95;2.47;;;;;;;18.77;59.46;101323.44;4932059;28;20494;-67
2022/07/07 01:49:22;;;;;;;3.50;2.35;;;;;;;18.78;59.48;101321.59;4966154;28;20026;-68
2022/07/07 01:51:48;;;;;;;5.00;2.20;;;;;;;18.62;60.33;101311.81;4948962;28;20950;-69
2022/07/07 01:54:13;;;;;;;2.78;2.40;;;;;;;18.59;60.47;101312.97;4933783;28;20488;-68
2022/07/07 01:56:38;;;;;;;2.60;2.38;;;;;;;18.58;60.49;101315.84;4932146;28;20951;-68
2022/07/07 01:59:04;;;;;;;4.25;2.63;;;;;;;18.68;60.31;101295.00;4968215;28;20472;-68
2022/07/07 02:01:29;;;;;;;3.58;2.70;;;;;;;18.64;60.53;101288.31;4962032;28;20026;-67
2022/07/07 02:03:55;;;;;;;3.13;2.50;;;;;;;18.63;61.16;101286.69;4967598;28;20788;-67
2022/07/07 02:06:20;;;;;;;3.72;2.40;;;;;;;18.61;61.06;101277.97;4973022;28;20022;-68
2022/07/07 02:08:46;;;;;;;6.20;2.88;;;;;;;18.64;61.06;101278.44;4968959;28;20469;-68
2022/07/07 02:11:14;;;;;;;3.08;2.75;;;;;;;18.68;60.82;101278.91;4984807;28;20470;-67
2022/07/07 02:13:44;;;;;;;2.92;2.63;;;;;;;18.58;62.26;101272.97;4960460;28;20045;-68
2022/07/07 02:16:10;;;;;;;3.20;2.40;;;;;;;18.59;62.41;101274.63;4964308;28;20033;-66
2022/07/07 02:18:37;;;;;;;4.00;2.58;;;;;;;18.63;62.06;101275.97;4930426;28;20019;-68
2022/07/07 02:21:06;;;;;;;4.28;2.63;;;;;;;18.66;62.13;101280.94;4914894;28;20026;-69
2022/07/07 02:23:32;;;;;;;3.92;2.65;;;;;;;18.61;62.38;101272.59;4915699;28;20425;-68
2022/07/07 02:25:57;;;;;;;2.65;2.42;;;;;;;18.58;62.47;101278.31;4944679;28;20695;-69
2022/07/07 02:28:23;;;;;;;5.68;2.80;;;;;;;18.54;62.79;101273.31;4967344;28;20006;-67
2022/07/07 02:30:52;;;;;;;6.43;2.90;;;;;;;18.56;62.78;101269.59;4948975;28;20065;-68
2022/07/07 02:33:17;;;;;;;2.90;2.70;;;;;;;18.58;65.41;101270.28;4987520;28;20234;-69
2022/07/07 02:35:42;;;;;;;2.60;2.40;;;;;;;18.48;67.22;101263.28;4986055;28;20010;-65
2022/07/07 02:38:08;;;;;;;3.92;2.97;;;;;;;18.42;69.09;101257.81;4970063;28;20010;-68
2022/07/07 02:40:33;;;;;;;5.40;2.63;;;;;;;18.27;69.39;101260.41;4965261;28;20024;-68
2022/07/07 02:42:59;;;;;;;6.18;2.72;;;;;;;18.18;68.88;101244.34;4951595;28;20071;-68
2022/07/07 02:45:24;;;;;;;3.95;2.85;;;;;;;18.11;70.31;101242.56;4962297;28;20068;-70
2022/07/07 02:47:50;;;;;;;4.07;3.13;;;;;;;18.13;70.53;101251.25;4952259;28;20954;-68
2022/07/07 02:50:15;;;;;;;2.97;2.50;;;;;;;18.13;69.89;101249.38;4980150;28;20010;-70
2022/07/07 02:52:41;;;;;;;6.55;3.00;;;;;;;18.08;70.86;101243.75;4953873;28;20463;-68
2022/07/07 02:55:06;;;;;;;3.10;2.80;;;;;;;18.12;70.55;101246.88;4979787;28;20025;-71
2022/07/07 02:57:32;;;;;;;2.97;2.75;;;;;;;18.07;71.45;101250.09;4951912;28;20013;-68
2022/07/07 02:59:57;;;;;;;3.22;2.90;;;;;;;18.12;71.40;101246.88;4965372;28;20716;-68
2022/07/07 03:02:23;;;;;;;6.70;3.00;;;;;;;18.11;71.24;101248.75;4969669;28;20033;-67
2022/07/07 03:04:48;;;;;;;2.95;2.58;;;;;;;18.11;72.63;101239.88;4967904;28;20087;-71
2022/07/07 03:07:14;;;;;;;3.20;2.90;;;;;;;18.08;71.98;101248.25;4965476;28;20445;-66
2022/07/07 03:09:39;;;;;;;5.15;2.95;;;;;;;18.16;70.48;101254.41;4943633;28;20239;-69
2022/07/07 03:12:05;;;;;;;5.15;2.90;;;;;;;18.08;70.93;101246.41;4933914;28;20037;-68
2022/07/07 03:14:31;;;;;;;3.22;2.92;;;;;;;18.15;70.71;101249.25;4965489;28;20023;-68
2022/07/07 03:16:56;;;;;;;4.03;2.78;;;;;;;18.20;69.51;101252.22;4966496;28;20052;-66
2022/07/07 03:19:21;;;;;;;3.72;2.90;;;;;;;18.06;71.37;101256.44;4968047;28;20346;-70
2022/07/07 03:21:47;;;;;;;3.40;2.72;;;;;;;18.03;70.15;101254.13;4983199;28;20018;-67
2022/07/07 03:24:12;;;;;;;3.03;2.60;;;;;;;18.06;70.53;101259.13;4969644;28;20197;-68
2022/07/07 03:26:38;;;;;;;2.97;2.70;;;;;;;18.02;71.08;101247.94;4964857;28;20017;-68
2022/07/07 03:29:03;;;;;;;2.72;2.53;;;;;;;18.05;71.98;101246.78;4967335;28;20151;-69
2022/07/07 03:31:29;;;;;;;3.30;2.60;;;;;;;18.02;70.92;101242.59;4964121;28;20147;-67
2022/07/07 03:33:54;;;;;;;4.07;2.90;;;;;;;18.00;69.97;101238.41;4967967;28;20059;-68
2022/07/07 03:36:20;;;;;;;2.67;2.53;;;;;;;18.03;69.84;101243.41;4982965;28;20106;-70
2022/07/07 03:38:45;;;;;;;5.10;2.72;;;;;;;18.03;70.39;101243.41;4987409;28;20181;-68
2022/07/07 03:41:10;;;;;;;3.50;2.75;;;;;;;18.10;70.02;101244.38;4964619;28;21027;-68
2022/07/07 03:43:36;;;;;;;5.05;2.67;;;;;;;18.10;70.15;101241.72;4962133;28;20029;-68
2022/07/07 03:46:01;;;;;;;7.40;2.78;;;;;;;18.03;70.20;101232.69;4952888;28;20946;-67
2022/07/07 03:48:29;;;;;;;4.05;2.72;;;;;;;18.06;70.13;101235.03;4948386;28;20029;-68
2022/07/07 03:50:54;;;;;;;2.90;2.70;;;;;;;18.11;69.77;101237.19;4928849;28;20011;-67
2022/07/07 03:53:20;;;;;;;5.30;2.58;;;;;;;18.10;70.21;101243.56;4948391;28;20356;-69
2022/07/07 03:55:45;;;;;;;4.43;2.60;;;;;;;18.07;70.24;101234.03;4944604;28;20022;-65
2022/07/07 03:58:11;;;;;;;3.95;2.83;;;;;;;18.06;70.26;101235.03;4946743;28;20019;-67
2022/07/07 04:00:36;;;;;;;4.20;2.50;;;;;;;18.29;69.16;101229.75;4910386;28;20660;-66
2022/07/07 04:03:02;;;;;;;2.92;2.63;;;;;;;18.19;69.60;101237.16;4922549;28;20108;-66
2022/07/07 04:05:27;;;;;;;4.50;2.60;;;;;;;18.13;70.47;101243.22;4927744;28;20042;-65
2022/07/07 04:07:52;;;;;;;3.20;2.53;;;;;;;18.07;70.96;101226.00;4961510;28;20121;-66
2022/07/07 04:10:18;;;;;;;3.65;2.78;;;;;;;18.07;70.68;101225.16;4925615;28;20121;-67
2022/07/07 04:12:43;;;;;;;2.50;2.38;;;;;;;18.10;70.82;101216.78;4961705;28;20177;-67
2022/07/07 04:15:09;;;;;;;2.90;2.70;;;;;;;18.06;72.42;101220.81;4918790;28;20325;-66
2022/07/07 04:17:35;;;;;;;2.78;2.42;;;;;;;18.06;72.37;101221.63;4929905;28;20022;-68
2022/07/07 04:20:01;;;;;;;4.38;2.40;;;;;;;18.09;71.73;101221.31;4933162;28;20035;-65
2022/07/07 04:22:26;;;;;;;2.72;2.50;;;;;;;18.10;72.88;101216.78;4934037;28;20136;-66
2022/07/07 04:24:52;;;;;;;4.00;2.50;;;;;;;18.05;72.68;101216.47;4942551;28;20030;-66
2022/07/07 04:27:17;;;;;;;4.60;2.58;;;;;;;18.01;72.42;101200.75;4984765;28;20286;-66
2022/07/07 04:29:43;;;;;;;2.60;2.40;;;;;;;17.98;72.93;101192.25;4982440;28;20029;-66
2022/07/07 04:32:08;;;;;;;4.22;2.40;;;;;;;17.94;73.23;101190.91;4982502;28;20025;-67
2022/07/07 04:34:34;;;;;;;2.72;2.53;;;;;;;17.95;73.30;101187.22;4952881;28;20014;-66
2022/07/07 04:36:59;;;;;;;2.63;2.42;;;;;;;17.99;72.85;101194.75;4981075;28;20410;-67
2022/07/07 04:39:25;;;;;;;3.35;2.65;;;;;;;17.85;73.35;101188.25;4967914;28;20026;-67
2022/07/07 04:41:50;;;;;;;2.53;2.33;;;;;;;17.93;73.55;101190.06;4964099;28;20006;-66
2022/07/07 04:44:16;;;;;;;2.53;2.38;;;;;;;18.00;73.40;101188.34;4974535;28;20422;-67
2022/07/07 04:46:41;;;;;;;2.72;2.53;;;;;;;17.95;73.31;101189.88;4961125;28;20324;-66
2022/07/07 04:49:06;;;;;;;2.67;2.53;;;;;;;17.91;73.55;101193.91;4964424;28;20026;-66
2022/07/07 04:51:32;;;;;;;4.35;2.47;;;;;;;17.90;73.55;101197.59;4958073;28;20053;-67
2022/07/07 04:53:57;;;;;;;3.20;2.60;;;;;;;17.94;73.52;101196.28;4962691;28;20299;-66
2022/07/07 04:56:23;;;;;;;3.53;2.60;;;;;;;17.97;73.59;101196.75;4963126;28;20060;-66
2022/07/07 04:58:48;;;;;;;3.17;2.67;;;;;;;17.96;73.33;101194.25;4964977;28;20406;-67
2022/07/07 05:01:14;;;;;;;2.58;2.38;;;;;;;17.90;73.57;101184.22;4927075;28;20030;-64
2022/07/07 05:03:39;;;;;;;5.50;2.80;;;;;;;18.01;73.18;101191.88;4945822;28;20270;-68
2022/07/07 05:06:05;;;;;;;3.83;2.40;;;;;;;17.97;73.13;101186.03;4947857;28;20060;-65
2022/07/07 05:08:30;;;;;;;2.35;2.25;;;;;;;17.89;73.38;101177.19;4963392;28;20315;-66
2022/07/07 05:10:56;;;;;;;3.22;2.40;;;;;;;17.92;73.51;101182.22;4954817;28;20033;-66
2022/07/07 05:13:21;;;;;;;3.20;2.33;;;;;;;17.98;73.20;101181.53;4959818;28;20395;-68
2022/07/07 05:15:48;;;;;;;2.90;2.25;;;;;;;17.94;73.32;101180.22;4960104;28;20392;-66
2022/07/07 05:18:14;;;;;;;4.68;2.50;;;;;;;18.02;73.10;101177.47;4978728;28;20010;-67
2022/07/07 05:20:40;;;;;;;3.70;2.20;;;;;;;17.94;73.46;101174.84;4947540;28;20121;-67
2022/07/07 05:23:05;;;;;;;3.78;2.28;;;;;;;18.00;74.00;101184.84;4947973;28;20129;-66
2022/07/07 05:25:31;;;;;;;2.30;2.20;;;;;;;18.07;73.65;101188.50;4963730;28;20565;-66
2022/07/07 05:27:56;;;;;;;2.30;2.10;;;;;;;18.05;73.84;101181.63;4983093;28;20105;-66
2022/07/07 05:30:22;;;;;;;3.00;2.70;;;;;;;17.95;74.87;101188.06;4962011;28;20265;-66
2022/07/07 05:32:47;;;;;;;3.55;2.80;;;;;;;17.98;75.46;101182.34;4964561;28;20145;-67
2022/07/07 05:35:13;;;;;;;3.08;2.72;;;;;;;17.91;74.86;101197.44;4962248;28;20988;-66
2022/07/07 05:37:40;;;;;;;2.78;2.28;;;;;;;18.01;74.73;101190.03;4967394;28;20018;-67
2022/07/07 05:40:07;;;;;;;3.22;2.40;;;;;;;17.96;75.01;101192.38;4963912;28;20436;-65
2022/07/07 05:42:33;;;;;;;2.50;2.30;;;;;;;18.02;74.40;101189.03;4961019;28;20010;-68
2022/07/07 05:44:58;;;;;;;2.58;2.13;;;;;;;18.08;74.89;101192.00;4948122;28;20099;-67
2022/07/07 05:47:23;;;;;;;4.50;2.30;;;;;;;18.08;75.12;101192.84;4952621;28;20587;-66
2022/07/07 05:49:49;;;;;;;2.40;2.20;;;;;;;17.98;74.96;101197.59;4938761;28;20364;-66
2022/07/07 05:52:14;;;;;;;4.60;2.35;;;;;;;17.93;76.07;101200.78;4979791;28;20095;-66
2022/07/07 05:54:40;;;;;;;2.50;2.40;;;;;;;17.92;76.57;101203.63;4981615;28;20530;-66
2022/07/07 05:57:06;;;;;;;3.90;2.70;;;;;;;17.84;78.16;101215.19;4957838;28;20424;-66
2022/07/07 05:59:32;;;;;;;2.90;2.70;;;;;;;17.71;79.80;101201.50;4960650;28;20443;-67
2022/07/07 06:01:57;;;;;;;2.85;2.58;;;;;;;17.64;82.16;101233.47;4945672;28;20057;-65
2022/07/07 06:04:23;;;;;;;3.42;3.13;;;;;;;17.46;83.65;101233.69;4961497;28;20026;-66
2022/07/07 06:06:49;;;;;;;3.83;2.40;;;;;;;17.38;84.37;101250.59;4962358;28;20297;-66
2022/07/07 06:09:14;;;;;;;6.80;2.45;;;;;;;17.35;84.72;101245.56;4962279;28;20412;-66
2022/07/07 06:11:39;;;;;;;3.63;2.60;;;;;;;17.22;85.90;101250.59;4963353;28;20409;-68
2022/07/07 06:14:05;;;;;;;2.65;2.40;;;;;;;17.22;85.91;101247.91;4961048;28;20018;-66
2022/07/07 06:16:40;;;;;;;2.83;2.55;;;;;;;17.20;86.86;101241.91;4956545;28;20432;-67
2022/07/07 06:19:06;;;;;;;3.70;2.30;;;;;;;17.12;86.05;101248.94;4967872;28;20258;-67
2022/07/07 06:21:31;;;;;;;2.22;2.05;;;;;;;17.15;86.68;101248.59;4961105;28;20033;-64
2022/07/07 06:23:57;;;;;;;2.20;2.10;;;;;;;17.20;86.31;101244.59;4983799;28;20090;-66
2022/07/07 06:26:22;;;;;;;2.63;2.00;;;;;;;17.33;85.94;101255.63;4966435;28;19994;-64
2022/07/07 06:28:48;;;;;;;1.90;1.80;;;;;;;17.31;85.29;101255.75;4984802;28;20423;-68
2022/07/07 06:31:13;;;;;;;2.22;1.83;;;;;;;17.32;84.93;101262.78;4957271;28;20419;-66
2022/07/07 06:33:38;;;;;;;2.65;1.83;;;;;;;17.24;85.18;101264.66;4963330;28;20049;-66
2022/07/07 06:36:04;;;;;;;1.85;1.60;;;;;;;17.23;85.83;101261.16;4983575;28;20018;-66
2022/07/07 06:38:30;;;;;;;2.55;1.75;;;;;;;17.23;85.80;101273.66;4928735;28;20083;-66
2022/07/07 06:40:59;;;;;;;2.08;1.80;;;;;;;17.29;86.62;101265.81;4968500;28;20245;-66
2022/07/07 06:43:24;;;;;;;1.98;1.88;;;;;;;17.16;87.27;101278.84;4947685;28;20363;-65
2022/07/07 06:45:50;;;;;;;2.13;1.98;;;;;;;17.20;86.11;101263.31;4961944;28;20017;-66
2022/07/07 06:48:16;;;;;;;1.95;1.85;;;;;;;17.32;85.75;101261.97;4967791;28;20266;-69
2022/07/07 06:50:41;;;;;;;1.77;1.67;;;;;;;17.40;85.74;101269.13;4963548;28;20018;-66
2022/07/07 06:53:07;;;;;;;2.45;1.90;;;;;;;17.45;85.38;101272.97;4983120;28;20088;-68
2022/07/07 06:55:32;;;;;;;2.05;1.95;;;;;;;17.46;85.63;101280.00;4982799;28;20029;-66
2022/07/07 06:57:58;;;;;;;2.15;1.95;;;;;;;17.48;86.86;101279.84;4965491;28;20478;-67
2022/07/07 07:00:24;;;;;;;1.77;1.67;;;;;;;17.42;86.51;101292.06;4965790;28;20703;-66
2022/07/07 07:02:49;;;;;;;1.83;1.10;;;;;;;17.49;85.04;101286.88;4965481;28;20113;-67
2022/07/07 07:05:15;;;;;;;0.90;0.90;;;;;;;17.39;84.06;101284.38;4961341;28;20265;-68
2022/07/07 07:07:41;;;;;;;0.88;0.88;;;;;;;17.35;84.64;101285.69;4938588;28;20428;-66
2022/07/07 07:10:07;;;;;;;1.50;0.98;;;;;;;17.49;85.41;101290.38;4950380;28;20760;-67
2022/07/07 07:12:32;;;;;;;0.60;0.60;;;;;;;17.44;83.29;101284.72;4955675;28;20050;-66
2022/07/07 07:14:57;;;;;;;3.30;0.80;;;;;;;17.57;84.94;101278.84;4966317;28;20071;-66
2022/07/07 07:17:23;;;;;;;0.60;0.60;;;;;;;17.66;84.31;101280.47;4969736;28;20026;-64
2022/07/07 07:19:48;;;;;;;0.80;0.80;;;;;;;17.73;83.87;101285.97;4967270;28;20189;-67
2022/07/07 07:22:14;;;;;;;1.05;0.98;;;;;;;17.69;83.76;101293.50;4963426;28;20056;-66
2022/07/07 07:24:39;;;;;;;2.83;0.90;;;;;;;17.66;84.61;101288.50;4957392;28;20038;-67
2022/07/07 07:27:05;;;;;;;1.58;1.00;;;;;;;17.92;85.03;101290.16;4947277;28;20022;-67
2022/07/07 07:29:30;;;;;;;2.45;1.13;;;;;;;18.13;83.72;101291.41;4945931;28;20393;-67
2022/07/07 07:31:55;;;;;;;1.08;1.00;;;;;;;18.27;83.27;101292.53;4961455;28;20296;-66
2022/07/07 07:34:21;;;;;;;3.05;0.93;;;;;;;18.41;82.14;101291.78;4963944;28;20030;-67
2022/07/07 07:36:46;;;;;;;2.83;1.25;;;;;;;18.63;80.84;101292.03;4929977;28;20980;-66
2022/07/07 07:39:12;;;;;;;3.72;1.50;;;;;;;18.69;78.88;101288.63;4960901;28;20095;-65
2022/07/07 07:41:38;;;;;;;1.75;1.23;;;;;;;18.57;77.36;101292.72;4947188;28;20069;-67
2022/07/07 07:44:04;;;;;;;1.40;1.30;;;;;;;18.74;79.01;101297.00;4948112;28;20068;-67
2022/07/07 07:46:29;;;;;;;1.10;1.10;;;;;;;18.81;78.66;101308.69;4938950;28;20286;-68
2022/07/07 07:48:55;;;;;;;1.20;1.10;;;;;;;18.95;78.30;101312.47;4943503;28;20364;-68
2022/07/07 07:51:20;;;;;;;1.20;1.10;;;;;;;18.86;77.34;101306.28;4964312;28;20531;-68
2022/07/07 07:53:45;;;;;;;1.10;1.10;;;;;;;18.83;76.94;101309.31;4965244;28;20025;-66
2022/07/07 07:56:11;;;;;;;1.98;1.20;;;;;;;18.72;76.83;101304.38;4948940;28;20812;-67
2022/07/07 07:58:37;;;;;;;1.77;1.67;;;;;;;18.54;75.93;101313.53;4963645;28;20026;-66
2022/07/07 08:01:03;;;;;;;1.60;1.50;;;;;;;18.35;76.83;101313.94;4945619;28;20285;-67
2022/07/07 08:03:28;;;;;;;1.55;1.00;;;;;;;18.11;77.14;101315.69;4949957;28;20064;-67
2022/07/07 08:05:53;;;;;;;1.27;1.00;;;;;;;17.89;79.23;101316.41;4964929;28;20539;-67
2022/07/07 08:08:19;;;;;;;1.48;1.25;;;;;;;17.91;79.33;101306.38;4965766;28;20029;-68
2022/07/07 08:10:44;;;;;;;1.85;0.90;;;;;;;18.11;80.27;101326.41;4979558;28;20021;-67
2022/07/07 08:13:10;;;;;;;0.98;0.88;;;;;;;18.30;80.97;101330.56;4982162;28;20477;-68
2022/07/07 08:15:35;;;;;;;2.20;0.90;;;;;;;18.27;78.45;101338.09;4959655;28;20014;-68
2022/07/07 08:18:00;;;;;;;0.70;0.70;;;;;;;18.46;78.44;101337.69;4963412;28;20018;-68
2022/07/07 08:20:26;;;;;;;0.70;0.70;;;;;;;18.69;77.71;101339.56;4958441;28;20015;-68
2022/07/07 08:22:52;;;;;;;0.90;0.65;;;;;;;18.72;75.69;101344.56;4965242;28;20321;-66
2022/07/07 08:25:17;;;;;;;0.73;0.73;;;;;;;18.71;76.08;101334.84;4949917;28;20031;-66
2022/07/07 08:27:43;;;;;;;2.20;0.90;;;;;;;18.86;77.48;101333.09;4964296;28;20419;-68
2022/07/07 08:30:08;;;;;;;0.80;0.80;;;;;;;19.21;76.21;101341.59;4961551;28;20080;-66
2022/07/07 08:32:34;;;;;;;1.50;0.80;;;;;;;19.39;73.37;101344.00;4947347;28;20155;-68
2022/07/07 08:34:59;;;;;;;1.42;1.10;;;;;;;19.49;73.47;101351.78;4961359;28;20127;-66
2022/07/07 08:37:24;;;;;;;1.92;1.00;;;;;;;19.35;70.07;101349.91;4943414;28;20377;-68
2022/07/07 08:39:50;;;;;;;1.63;0.93;;;;;;;19.22;70.54;101354.03;4963825;28;20054;-65
2022/07/07 08:42:16;;;;;;;1.35;0.90;;;;;;;19.31;70.78;101351.28;4943037;28;20018;-67
2022/07/07 08:44:41;;;;;;;2.10;0.93;;;;;;;19.38;70.32;101362.97;4945264;28;20022;-66
2022/07/07 08:47:06;;;;;;;1.30;0.93;;;;;;;19.34;70.33;101364.34;4941969;28;20814;-67
2022/07/07 08:49:32;;;;;;;2.35;1.02;;;;;;;19.48;68.91;101366.22;4963505;28;20916;-68
2022/07/07 08:51:57;;;;;;;1.65;0.90;;;;;;;19.24;67.31;101353.84;4942930;28;20984;-66
2022/07/07 08:54:24;;;;;;;3.20;1.00;;;;;;;19.29;67.89;101366.72;4929056;28;20794;-67
2022/07/07 08:56:50;;;;;;;3.08;1.00;;;;;;;19.27;67.11;101374.13;4930403;28;20048;-65
2022/07/07 08:59:17;;;;;;;1.23;0.70;;;;;;;19.09;67.45;101385.97;4960318;28;20054;-67
2022/07/07 09:01:57;;;;;;;1.05;0.70;;;;;;;18.91;66.65;101382.72;4962755;28;20015;-67
2022/07/07 09:04:22;;;;;;;0.65;0.65;;;;;;;18.93;65.82;101383.38;4927454;28;20447;-66
2022/07/07 09:07:02;;;;;;;0.88;0.60;;;;;;;19.07;65.31;101390.69;4929719;28;20130;-68
2022/07/07 09:09:37;;;;;;;0.95;0.60;;;;;;;19.06;65.92;101389.00;4948224;28;20985;-66
2022/07/07 09:12:03;;;;;;;1.98;0.98;;;;;;;19.37;64.87;101391.66;4943778;28;20103;-66
2022/07/07 09:14:36;;;;;;;1.75;0.90;;;;;;;19.52;65.60;101397.06;4939392;28;20707;-67
2022/07/07 09:17:02;;;;;;;1.17;0.73;;;;;;;19.69;65.18;101396.94;4945071;28;20121;-67
2022/07/07 09:19:28;;;;;;;1.58;0.90;;;;;;;19.54;62.62;101413.84;4929560;28;20019;-67
2022/07/07 09:21:53;;;;;;;3.40;1.10;;;;;;;19.52;62.52;101410.50;4928622;28;20026;-67
2022/07/07 09:24:19;;;;;;;2.35;0.70;;;;;;;19.66;62.80;101413.41;4942389;28;20122;-66
2022/07/07 09:26:46;;;;;;;2.45;0.70;;;;;;;19.96;61.31;101408.97;4950587;28;20030;-69
2022/07/07 09:29:13;;;;;;;1.55;0.70;;;;;;;20.62;60.40;101412.81;4933885;28;20018;-68
2022/07/07 09:32:01;;;;;;;0.70;0.60;;;;;;;20.76;58.71;101410.13;4960685;28;20112;-67
2022/07/07 09:34:30;;;;;;;0.85;0.60;;;;;;;20.65;58.54;101420.50;4942975;28;20010;-66
2022/07/07 09:39:46;;;;;;;1.23;0.80;;;;;;;20.58;58.69;101431.97;4935722;28;20456;-68
2022/07/07 09:42:24;;;;;;;2.08;0.85;;;;;;;20.69;57.43;101438.78;4940599;28;20335;-68
2022/07/07 09:45:09;;;;;;;2.05;0.88;;;;;;;20.98;58.19;101431.69;4943736;28;20031;-67
2022/07/07 09:47:34;;;;;;;3.08;1.17;;;;;;;21.41;57.12;101428.22;4929694;28;20121;-68
2022/07/07 09:50:01;;;;;;;1.17;0.80;;;;;;;21.60;55.97;101432.16;4954382;28;20025;-66
2022/07/07 09:52:26;;;;;;;1.00;0.70;;;;;;;21.26;54.97;101436.34;4962538;28;20025;-68
2022/07/07 09:54:52;;;;;;;2.42;0.70;;;;;;;21.11;55.31;101439.09;4937533;28;20762;-67
2022/07/07 09:57:17;;;;;;;1.67;0.82;;;;;;;20.83;55.97;101444.34;4938469;28;20333;-68
2022/07/07 09:59:43;;;;;;;3.33;0.90;;;;;;;20.34;57.82;101445.72;4986656;28;20855;-67
2022/07/07 10:02:16;;;;;;;1.17;0.90;;;;;;;20.00;59.91;101450.56;4963409;28;20089;-66
2022/07/07 10:04:41;;;;;;;1.73;0.97;;;;;;;19.90;60.17;101464.25;4955466;28;20899;-67
2022/07/07 10:07:09;;;;;;;3.03;0.82;;;;;;;19.74;60.90;101464.34;4968668;28;20277;-66
2022/07/07 10:09:34;;;;;;;2.55;1.30;;;;;;;19.51;62.45;101470.56;4928516;28;20096;-66
2022/07/07 10:12:00;;;;;;;1.55;0.95;;;;;;;19.45;62.46;101475.81;4949219;28;20050;-66
2022/07/07 10:14:31;;;;;;;1.85;0.80;;;;;;;19.21;62.86;101466.91;4943921;28;20602;-68
2022/07/07 10:16:57;;;;;;;1.90;1.00;;;;;;;19.00;64.61;101471.00;4931442;28;20123;-66
2022/07/07 10:19:23;;;;;;;2.22;1.02;;;;;;;19.12;64.28;101474.16;4928228;28;21035;-67
2022/07/07 10:21:51;;;;;;;1.13;1.00;;;;;;;19.65;63.48;101489.59;4930496;28;20586;-67
2022/07/07 10:24:18;;;;;;;0.73;0.60;;;;;;;20.62;60.61;101485.41;4932023;28;20089;-66
2022/07/07 10:26:48;;;;;;;0.93;0.75;;;;;;;21.20;58.42;101497.16;4946270;28;20018;-66
2022/07/07 10:29:13;;;;;;;1.02;0.70;;;;;;;21.23;57.18;101498.66;4931448;28;20947;-68
2022/07/07 10:31:39;;;;;;;1.17;0.70;;;;;;;20.98;57.59;101490.06;4963045;28;20049;-67
2022/07/07 10:34:09;;;;;;;1.20;0.50;;;;;;;20.70;59.74;101490.72;4947860;28;20045;-67
2022/07/07 10:36:50;;;;;;;1.55;0.63;;;;;;;20.76;58.80;101498.06;4945896;28;20006;-67
2022/07/07 10:39:16;;;;;;;1.27;0.93;;;;;;;20.88;58.05;101496.56;4965629;28;20022;-67
2022/07/07 10:41:42;;;;;;;1.00;0.63;;;;;;;20.97;56.06;101500.00;4944338;28;20041;-67
2022/07/07 10:44:11;;;;;;;4.72;0.90;;;;;;;21.04;56.77;101508.13;4953314;28;20002;-68
2022/07/07 10:46:37;;;;;;;0.88;0.70;;;;;;;20.68;56.80;101508.91;4945461;28;20875;-68
2022/07/07 10:49:12;;;;;;;0.50;0.50;;;;;;;20.56;57.22;101506.63;4929586;28;20860;-67
2022/07/07 10:51:52;;;;;;;2.22;0.40;;;;;;;20.38;58.06;101500.78;4936776;28;20487;-66
2022/07/07 10:54:31;;;;;;;0.68;0.60;;;;;;;20.11;59.22;101510.25;4961016;28;20272;-68
2022/07/07 10:57:18;;;;;;;0.60;0.60;;;;;;;19.71;59.79;101518.41;4947629;28;20010;-68
2022/07/07 11:00:01;;;;;;;1.83;0.70;;;;;;;19.55;61.49;101522.88;4961499;28;20006;-66
2022/07/07 11:02:39;;;;;;;12.23;6.60;;;;;;;19.59;61.79;101525.19;4953024;28;20049;-66
2022/07/07 11:05:14;;;;;;;2.13;1.92;;;;;;;19.61;60.47;101525.88;4951731;28;20054;-67
2022/07/07 11:07:43;;;;;;;9.13;6.85;;;;;;;19.84;59.79;101525.91;4960979;28;20099;-67
2022/07/07 11:10:09;;;;;;;1.27;0.90;;;;;;;20.11;58.09;101526.38;4963487;28;20374;-68
2022/07/07 11:12:40;;;;;;;1.23;0.80;;;;;;;20.45;57.33;101528.59;4961211;28;20034;-66
2022/07/07 11:15:15;;;;;;;0.93;0.75;;;;;;;20.58;56.52;101530.66;4963591;28;20844;-67
2022/07/07 11:17:42;;;;;;;0.70;0.70;;;;;;;20.51;57.03;101535.09;4964817;28;20390;-66
2022/07/07 11:20:08;;;;;;;2.30;0.77;;;;;;;20.47;58.45;101533.78;4962652;28;20034;-66
2022/07/07 11:22:47;;;;;;;0.60;0.60;;;;;;;20.13;57.88;101540.47;4961904;28;20022;-67
2022/07/07 11:25:13;;;;;;;1.08;0.70;;;;;;;19.92;59.66;101541.16;4952907;28;20053;-66